Sainte-Marguerite, Canada
Current Conditions -  °F | °C
As of 8:00 AM on Tuesday 21 Oct 2014 (Local Time) from CYMX Reporting Station
Overcast Overcast  
Wind Chill: 36°   Ceiling: 3700
Heat Index: 41°   Visibility: 25mi
Dew Point: 32°   Wind: 7mph
Humidity: 70%   Direction: 50°NE
Pressure: 30.01"   Gusts: NA
Location:  46.03°N, 74.07°W
Report Text: CYMX 211200Z 05006KT 330V100 25SM FEW020 OVC037 05/00 A3001 RMK SC1SC7 SLP165
Loading
Personal Weather Stations






























Interactive Weather Map
Tropical Storm Tracking
New forecast layout! Learn more

10-Day Weather Forecast

Advertisements
Track Severe Weather on mobile